Time;durP1;ratioP1;P1;durP2;ratioP2;P2;SDS_P1;SDS_P2;PMS_P1;PMS_P2;Temp;Humidity;BMP_temperature;BMP_pressure;BME280_temperature;BME280_humidity;BME280_pressure;Samples;Min_cycle;Max_cycle;Signal;HPM_P1;HPM_P2
2021/12/28 00:00:17;;;;;;;7.22;4.10;;;;;;;7.11;100.00;98984.22;826915;23;1310;-85
2021/12/28 00:00:38;;;;;;;6.10;4.18;;;;;;;7.10;100.00;98951.34;821675;23;1310;-84
2021/12/28 00:01:05;;;;;;;5.70;3.70;;;;;;;7.09;100.00;98939.25;832507;23;987;-85
2021/12/28 00:01:26;;;;;;;7.28;4.00;;;;;;;7.07;100.00;98943.59;829557;23;4292;-86
2021/12/28 00:01:46;;;;;;;5.85;3.92;;;;;;;7.12;100.00;98957.38;830448;23;1108;-86
2021/12/28 00:02:10;;;;;;;6.73;4.23;;;;;;;7.08;100.00;98939.28;831057;23;1097;-86
2021/12/28 00:02:30;;;;;;;6.68;4.20;;;;;;;7.19;100.00;98965.91;830202;23;1181;-86
2021/12/28 00:02:51;;;;;;;6.27;4.17;;;;;;;7.31;100.00;98939.69;827453;23;1142;-85
2021/12/28 00:03:12;;;;;;;5.63;3.95;;;;;;;7.26;100.00;98961.47;830686;23;1114;-86
2021/12/28 00:03:34;;;;;;;6.00;3.97;;;;;;;7.22;100.00;98965.00;825572;23;1342;-85
2021/12/28 00:03:55;;;;;;;6.72;4.10;;;;;;;7.18;100.00;98929.56;830499;23;1232;-85
2021/12/28 00:04:15;;;;;;;7.00;4.00;;;;;;;7.16;100.00;98937.38;829835;23;4186;-85
2021/12/28 00:04:36;;;;;;;7.57;3.87;;;;;;;7.19;100.00;98975.47;830306;23;1379;-85
2021/12/28 00:04:59;;;;;;;6.43;4.10;;;;;;;7.18;100.00;98937.34;827628;23;1243;-85
2021/12/28 00:05:20;;;;;;;7.40;4.32;;;;;;;7.20;100.00;98927.78;830435;23;1278;-85
2021/12/28 00:05:41;;;;;;;6.30;4.32;;;;;;;7.18;100.00;98945.16;830379;23;1351;-85
2021/12/28 00:06:02;;;;;;;6.47;4.07;;;;;;;7.16;100.00;98951.22;828581;23;879;-86
2021/12/28 00:06:22;;;;;;;5.55;3.97;;;;;;;7.19;100.00;98934.72;827335;23;1115;-86
2021/12/28 00:06:45;;;;;;;6.25;4.43;;;;;;;7.12;100.00;98933.97;826744;23;1169;-86
2021/12/28 00:07:06;;;;;;;6.82;4.60;;;;;;;7.16;100.00;98946.03;835343;23;1334;-85
2021/12/28 00:07:29;;;;;;;6.93;4.10;;;;;;;7.23;100.00;98925.13;826553;23;4216;-86
2021/12/28 00:07:50;;;;;;;6.60;3.80;;;;;;;7.21;100.00;98952.88;830738;23;1324;-85
2021/12/28 00:08:12;;;;;;;6.38;3.70;;;;;;;7.37;100.00;98923.13;832481;23;762;-85
2021/12/28 00:08:34;;;;;;;6.53;3.90;;;;;;;7.40;100.00;98917.84;827302;23;1239;-86
2021/12/28 00:08:57;;;;;;;6.88;3.80;;;;;;;7.40;100.00;98933.44;825338;24;1012;-85
2021/12/28 00:09:18;;;;;;;6.43;3.83;;;;;;;7.35;100.00;98917.06;828839;23;971;-85
2021/12/28 00:09:41;;;;;;;7.22;3.72;;;;;;;7.31;100.00;98959.63;824611;24;861;-86
2021/12/28 00:10:04;;;;;;;7.22;3.90;;;;;;;7.38;100.00;98950.84;824993;23;916;-85
2021/12/28 00:10:25;;;;;;;5.90;3.58;;;;;;;7.30;100.00;98919.78;827336;23;4212;-86
2021/12/28 00:10:47;;;;;;;5.55;3.60;;;;;;;7.23;100.00;98930.34;829453;23;1374;-86
2021/12/28 00:11:08;;;;;;;5.72;3.65;;;;;;;7.29;100.00;98958.81;827112;23;1407;-85
2021/12/28 00:11:29;;;;;;;6.22;3.90;;;;;;;7.42;100.00;98944.69;827002;23;1288;-86
2021/12/28 00:11:49;;;;;;;6.37;3.93;;;;;;;7.48;100.00;98936.75;826903;23;1218;-85
2021/12/28 00:12:10;;;;;;;6.78;3.55;;;;;;;7.55;100.00;98923.66;819989;24;1154;-85
2021/12/28 00:12:33;;;;;;;6.63;3.63;;;;;;;7.55;100.00;98921.06;827216;23;1374;-85
2021/12/28 00:12:55;;;;;;;5.28;3.70;;;;;;;7.54;100.00;98934.94;831698;23;1287;-86
2021/12/28 00:13:16;;;;;;;6.18;3.80;;;;;;;7.55;100.00;98911.50;831468;23;4371;-86
2021/12/28 00:13:38;;;;;;;6.38;3.90;;;;;;;7.54;100.00;98911.53;830924;23;1197;-86
2021/12/28 00:14:01;;;;;;;7.28;3.60;;;;;;;7.46;100.00;98911.66;826823;23;1192;-86
2021/12/28 00:14:23;;;;;;;5.60;3.78;;;;;;;7.37;100.00;98912.72;827882;23;900;-85
2021/12/28 00:15:01;;;;;;;5.93;3.90;;;;;;;7.24;100.00;98953.69;823602;23;1289;-86
2021/12/28 00:15:50;;;;;;;6.00;3.78;;;;;;;7.09;100.00;98923.66;828454;23;1297;-86
2021/12/28 00:16:29;;;;;;;6.22;3.90;;;;;;;7.12;100.00;98915.78;822036;23;4420;-85
2021/12/28 00:18:08;;;;;;;5.63;3.88;;;;;;;7.11;100.00;98918.41;830650;23;1380;-86
2021/12/28 00:18:34;;;;;;;7.45;3.97;;;;;;;7.01;100.00;98909.94;828220;23;1333;-86
2021/12/28 00:18:56;;;;;;;7.85;4.20;;;;;;;6.96;100.00;98928.22;832031;23;792;-86
2021/12/28 00:19:17;;;;;;;7.18;3.85;;;;;;;6.92;100.00;98933.47;826783;23;4262;-86
2021/12/28 00:19:37;;;;;;;6.93;3.70;;;;;;;7.05;100.00;98915.91;828038;23;808;-86
2021/12/28 00:19:58;;;;;;;6.95;3.67;;;;;;;7.03;100.00;98930.69;832528;23;840;-85
2021/12/28 00:20:19;;;;;;;6.57;4.00;;;;;;;7.03;100.00;98941.94;829973;23;761;-86
2021/12/28 00:20:42;;;;;;;6.32;4.32;;;;;;;6.97;100.00;98936.84;831058;23;1239;-86
2021/12/28 00:21:05;;;;;;;7.13;4.13;;;;;;;6.93;100.00;98923.06;827270;23;1371;-86
2021/12/28 00:21:29;;;;;;;6.47;3.80;;;;;;;6.92;100.00;98952.53;835556;23;1567;-86
2021/12/28 00:21:54;;;;;;;6.93;3.90;;;;;;;6.89;100.00;98952.56;834719;23;1259;-86
2021/12/28 00:22:18;;;;;;;6.20;4.07;;;;;;;6.86;100.00;98912.81;821375;23;4195;-86
2021/12/28 00:22:38;;;;;;;6.68;3.92;;;;;;;6.84;100.00;98922.34;826300;23;1381;-86
2021/12/28 00:23:05;;;;;;;6.82;3.80;;;;;;;6.80;100.00;98909.44;826431;23;1303;-86
2021/12/28 00:23:31;;;;;;;7.20;3.90;;;;;;;6.77;100.00;98935.47;826140;23;1323;-86
2021/12/28 00:23:55;;;;;;;6.43;4.00;;;;;;;6.92;100.00;98904.91;831356;23;1246;-86
2021/12/28 00:24:16;;;;;;;6.60;3.75;;;;;;;6.85;100.00;98929.28;826994;23;1212;-86
2021/12/28 00:24:38;;;;;;;6.05;3.92;;;;;;;6.81;100.00;98929.34;822026;23;1512;-86
2021/12/28 00:25:24;;;;;;;7.00;3.87;;;;;;;6.80;100.00;98922.41;827645;23;1283;-86
2021/12/28 00:25:51;;;;;;;6.88;4.00;;;;;;;6.72;100.00;98895.72;807179;23;4751;-85
2021/12/28 00:26:14;;;;;;;7.22;4.00;;;;;;;6.82;100.00;98901.63;827982;23;1333;-86
2021/12/28 00:26:35;;;;;;;7.30;4.10;;;;;;;6.86;100.00;98916.25;822973;23;1225;-86
2021/12/28 00:26:56;;;;;;;6.67;4.13;;;;;;;6.85;100.00;98905.91;822083;24;1391;-85
2021/12/28 00:27:17;;;;;;;7.32;4.55;;;;;;;6.82;100.00;98901.63;830318;23;1255;-86
2021/12/28 00:27:48;;;;;;;7.40;4.03;;;;;;;6.81;100.00;98926.75;828250;23;856;-86
2021/12/28 00:28:09;;;;;;;7.20;4.10;;;;;;;6.80;100.00;98927.63;826324;23;4255;-85
2021/12/28 00:28:30;;;;;;;7.53;4.00;;;;;;;6.89;100.00;98944.78;827040;23;1264;-86
2021/12/28 00:28:53;;;;;;;7.63;4.00;;;;;;;6.92;100.00;98910.97;831613;23;1481;-86
2021/12/28 00:29:22;;;;;;;7.95;3.70;;;;;;;6.90;100.00;98940.44;831738;23;1221;-86
2021/12/28 00:29:48;;;;;;;6.05;3.70;;;;;;;6.90;100.00;98906.69;831237;23;1320;-86
2021/12/28 00:30:10;;;;;;;8.63;3.70;;;;;;;7.12;100.00;98927.94;835208;23;1325;-86
2021/12/28 00:30:43;;;;;;;8.27;3.88;;;;;;;7.06;100.00;98923.72;832117;23;1336;-86
2021/12/28 00:31:05;;;;;;;5.95;3.50;;;;;;;7.19;100.00;98923.47;835974;23;1321;-85
2021/12/28 00:31:48;;;;;;;5.68;3.33;;;;;;;7.33;100.00;98883.31;829699;23;4846;-85
2021/12/28 00:32:09;;;;;;;6.82;3.70;;;;;;;7.30;100.00;98922.38;835341;23;1198;-85
2021/12/28 00:32:30;;;;;;;7.43;3.90;;;;;;;7.20;100.00;98900.06;831567;23;1261;-86
2021/12/28 00:32:53;;;;;;;6.25;3.50;;;;;;;7.31;100.00;98908.50;827365;23;1207;-85
2021/12/28 00:33:15;;;;;;;5.90;3.35;;;;;;;7.28;100.00;98911.16;828804;23;840;-86
2021/12/28 00:33:35;;;;;;;5.50;3.50;;;;;;;7.31;100.00;98899.81;827126;23;1223;-85
2021/12/28 00:33:58;;;;;;;5.83;3.57;;;;;;;7.37;100.00;98884.13;831181;23;1295;-86
2021/12/28 00:34:19;;;;;;;6.60;3.45;;;;;;;7.45;100.00;98892.63;833137;23;4280;-85
2021/12/28 00:34:41;;;;;;;6.53;3.72;;;;;;;7.36;100.00;98905.81;826790;23;1254;-85
2021/12/28 00:35:05;;;;;;;5.72;3.63;;;;;;;7.28;100.00;98913.78;834935;23;1275;-86
2021/12/28 00:35:30;;;;;;;6.47;3.80;;;;;;;7.22;100.00;98881.84;831118;23;1180;-86
2021/12/28 00:35:52;;;;;;;6.65;3.53;;;;;;;7.19;100.00;98885.34;827465;23;1360;-86
2021/12/28 00:36:15;;;;;;;6.15;3.50;;;;;;;7.10;100.00;98914.09;823595;24;1249;-86
2021/12/28 00:36:36;;;;;;;6.45;3.35;;;;;;;7.06;100.00;98918.50;827091;23;1324;-86
2021/12/28 00:36:56;;;;;;;7.03;3.60;;;;;;;7.09;100.00;98881.19;826480;23;1255;-86
2021/12/28 00:37:20;;;;;;;7.20;3.60;;;;;;;7.12;100.00;98879.41;825053;23;4959;-86
2021/12/28 00:37:40;;;;;;;7.15;3.67;;;;;;;7.13;100.00;98899.31;831048;23;1992;-86
2021/12/28 00:38:03;;;;;;;6.03;3.60;;;;;;;7.20;100.00;98910.47;826999;23;1127;-86
2021/12/28 00:38:25;;;;;;;6.15;3.65;;;;;;;7.21;100.00;98906.09;828747;23;1005;-86
2021/12/28 00:38:46;;;;;;;5.95;3.58;;;;;;;7.15;100.00;98876.75;823311;24;1309;-86
2021/12/28 00:39:09;;;;;;;6.95;3.42;;;;;;;7.24;100.00;98906.91;827171;23;1260;-86
2021/12/28 00:39:33;;;;;;;7.13;3.53;;;;;;;7.23;100.00;98876.59;834203;23;1181;-86
2021/12/28 00:39:56;;;;;;;5.75;3.10;;;;;;;7.15;100.00;98876.75;827849;23;1234;-86
2021/12/28 00:40:18;;;;;;;7.07;3.30;;;;;;;7.21;100.00;98908.69;826109;23;4281;-85
2021/12/28 00:40:48;;;;;;;;;;;;;;;;;;;;;
2021/12/28 00:41:14;;;;;;;7.13;3.42;;;;;;;7.18;100.00;98922.59;830939;23;1298;-85
2021/12/28 00:41:35;;;;;;;6.32;3.30;;;;;;;7.19;100.00;98913.09;832221;23;903;-85
2021/12/28 00:41:56;;;;;;;6.40;3.43;;;;;;;7.18;100.00;98895.78;827551;23;1140;-85
2021/12/28 00:42:25;;;;;;;6.60;3.25;;;;;;;7.11;100.00;98875.09;827102;23;1272;-85
2021/12/28 00:42:48;;;;;;;6.60;3.42;;;;;;;7.09;100.00;98909.78;826150;23;1194;-85
2021/12/28 00:43:09;;;;;;;5.93;3.55;;;;;;;7.11;100.00;98871.66;828818;23;4245;-86
2021/12/28 00:43:32;;;;;;;5.65;3.50;;;;;;;7.15;100.00;98868.94;826876;23;1356;-86
2021/12/28 00:43:53;;;;;;;5.85;3.35;;;;;;;7.35;100.00;98874.63;827271;23;1358;-86
2021/12/28 00:44:18;;;;;;;5.73;3.30;;;;;;;7.44;100.00;98882.25;826072;23;1361;-86
2021/12/28 00:44:41;;;;;;;6.93;3.40;;;;;;;7.44;100.00;98866.66;822664;23;1420;-84
2021/12/28 00:45:12;;;;;;;6.95;3.20;;;;;;;7.55;100.00;98869.03;827647;23;1390;-85
2021/12/28 00:45:33;;;;;;;7.05;3.42;;;;;;;7.55;100.00;98901.09;826393;23;1226;-85
2021/12/28 00:45:54;;;;;;;7.05;3.40;;;;;;;7.50;100.00;98876.91;824410;24;975;-86
2021/12/28 00:46:14;;;;;;;6.32;3.10;;;;;;;7.55;100.00;98869.88;816857;24;4418;-85
2021/12/28 00:46:35;;;;;;;5.35;3.13;;;;;;;7.53;100.00;98876.00;824775;24;873;-85
2021/12/28 00:46:55;;;;;;;5.60;3.10;;;;;;;7.48;100.00;98887.34;828253;23;1079;-86
2021/12/28 00:47:16;;;;;;;5.68;2.85;;;;;;;7.49;100.00;98880.41;823784;24;1273;-86
2021/12/28 00:47:46;;;;;;;7.65;3.50;;;;;;;7.58;100.00;98900.19;824581;24;1026;-86
2021/12/28 00:48:09;;;;;;;5.47;2.78;;;;;;;7.62;100.00;98863.66;828733;23;907;-86
2021/12/28 00:48:36;;;;;;;5.65;3.08;;;;;;;7.60;100.00;98872.38;830003;23;1201;-85
2021/12/28 00:48:59;;;;;;;6.53;2.90;;;;;;;7.49;100.00;98902.06;835677;23;1474;-86
2021/12/28 00:49:20;;;;;;;6.45;3.20;;;;;;;7.43;100.00;98907.38;829535;23;4233;-86
2021/12/28 00:49:41;;;;;;;7.03;3.30;;;;;;;7.35;100.00;98862.50;835792;23;1392;-86
2021/12/28 00:50:02;;;;;;;6.65;3.50;;;;;;;7.28;100.00;98869.56;836320;23;810;-86
2021/12/28 00:50:25;;;;;;;7.00;3.50;;;;;;;7.36;100.00;98890.19;831171;23;1300;-86
2021/12/28 00:50:47;;;;;;;7.03;3.10;;;;;;;7.38;100.00;98867.66;826892;23;1312;-86
2021/12/28 00:51:08;;;;;;;7.07;3.40;;;;;;;7.39;100.00;98858.94;823394;24;1272;-85
2021/12/28 00:51:31;;;;;;;5.83;3.10;;;;;;;7.47;100.00;98864.84;827507;23;1194;-86
2021/12/28 00:51:55;;;;;;;6.93;3.25;;;;;;;7.57;100.00;98898.47;831134;23;1335;-86
2021/12/28 00:52:15;;;;;;;6.53;3.50;;;;;;;7.49;100.00;98876.06;831071;23;4234;-86
2021/12/28 00:52:36;;;;;;;6.78;3.30;;;;;;;7.41;100.00;98890.97;826493;23;1315;-86
2021/12/28 00:52:59;;;;;;;6.85;3.30;;;;;;;7.35;100.00;98864.25;823458;24;1226;-86
2021/12/28 00:53:23;;;;;;;6.85;3.20;;;;;;;7.30;100.00;98879.94;831273;23;1189;-86
2021/12/28 00:53:46;;;;;;;6.80;3.30;;;;;;;7.25;100.00;98881.78;831601;23;1288;-86
2021/12/28 00:54:07;;;;;;;6.35;3.20;;;;;;;7.18;100.00;98860.25;827510;23;1302;-86
2021/12/28 00:54:27;;;;;;;6.07;3.10;;;;;;;7.15;100.00;98879.34;822887;24;1422;-86
2021/12/28 00:54:48;;;;;;;7.37;3.30;;;;;;;7.14;100.00;98879.38;826399;23;1204;-86
2021/12/28 00:55:10;;;;;;;6.10;3.13;;;;;;;7.08;100.00;98858.72;834018;23;4220;-86
2021/12/28 00:55:31;;;;;;;5.60;3.17;;;;;;;7.12;100.00;98868.16;835330;23;849;-86
2021/12/28 00:55:52;;;;;;;7.18;3.28;;;;;;;7.14;100.00;98877.66;830467;23;1228;-85
2021/12/28 00:56:12;;;;;;;8.00;3.13;;;;;;;7.34;100.00;98879.00;832103;23;836;-87
2021/12/28 00:56:35;;;;;;;7.37;3.03;;;;;;;7.31;100.00;98871.22;823623;24;1275;-85
2021/12/28 00:57:18;;;;;;;7.57;3.05;;;;;;;7.25;100.00;98861.81;823540;24;904;-86
2021/12/28 00:57:45;;;;;;;5.78;2.92;;;;;;;7.31;100.00;98860.84;821862;24;1898;-86
2021/12/28 00:58:08;;;;;;;6.30;3.08;;;;;;;7.49;100.00;98860.47;822850;23;4229;-85
2021/12/28 00:58:29;;;;;;;6.68;3.25;;;;;;;7.46;100.00;98862.28;827434;23;886;-86
2021/12/28 00:58:50;;;;;;;7.30;3.53;;;;;;;7.54;100.00;98862.97;829031;23;1189;-86
2021/12/28 00:59:12;;;;;;;10.63;3.97;;;;;;;7.50;100.00;98869.13;826871;23;1230;-86
2021/12/28 00:59:32;;;;;;;7.40;3.30;;;;;;;7.49;100.00;98865.69;823691;24;833;-86
2021/12/28 00:59:53;;;;;;;6.27;3.20;;;;;;;7.39;100.00;98853.75;834719;23;1159;-86
2021/12/28 01:00:18;;;;;;;7.80;3.28;;;;;;;7.29;100.00;98883.41;827696;23;1262;-86
2021/12/28 01:00:41;;;;;;;6.55;3.13;;;;;;;7.35;100.00;98901.47;827335;23;1533;-86
2021/12/28 01:01:02;;;;;;;6.50;3.20;;;;;;;7.33;100.00;98859.06;827801;23;1220;-86
2021/12/28 01:01:25;;;;;;;6.55;3.35;;;;;;;7.29;100.00;98862.63;829048;23;4241;-86
2021/12/28 01:01:47;;;;;;;6.68;3.40;;;;;;;7.35;100.00;98865.09;830678;23;1328;-85
2021/12/28 01:02:07;;;;;;;5.53;3.03;;;;;;;7.46;100.00;98881.34;828317;23;1278;-86
2021/12/28 01:02:30;;;;;;;7.30;3.30;;;;;;;7.44;100.00;98861.47;822807;24;1360;-85
2021/12/28 01:02:51;;;;;;;7.43;3.30;;;;;;;7.44;100.00;98872.72;823254;24;1022;-86
2021/12/28 01:03:13;;;;;;;7.35;3.13;;;;;;;7.37;100.00;98857.28;827697;23;1226;-86
2021/12/28 01:03:46;;;;;;;7.90;3.30;;;;;;;7.30;100.00;98860.00;826869;23;1276;-86
2021/12/28 01:04:06;;;;;;;7.10;3.25;;;;;;;7.39;100.00;98887.53;823527;23;4225;-86
2021/12/28 01:04:27;;;;;;;7.30;3.40;;;;;;;7.34;100.00;98892.00;826471;23;1424;-86
2021/12/28 01:04:48;;;;;;;5.40;2.90;;;;;;;7.28;100.00;98856.59;830898;23;1344;-87
2021/12/28 01:05:13;;;;;;;6.25;2.90;;;;;;;7.22;100.00;98861.88;834349;23;1242;-86
2021/12/28 01:05:34;;;;;;;6.53;3.13;;;;;;;7.16;100.00;98904.44;834607;23;845;-86
2021/12/28 01:05:55;;;;;;;6.40;3.35;;;;;;;7.13;100.00;98862.06;834474;23;1190;-86
2021/12/28 01:06:16;;;;;;;5.95;3.13;;;;;;;7.08;100.00;98862.16;834894;23;1645;-86
2021/12/28 01:06:36;;;;;;;6.45;3.10;;;;;;;7.06;100.00;98882.13;834919;23;1114;-86
2021/12/28 01:06:57;;;;;;;7.32;3.03;;;;;;;7.13;100.00;98883.72;837584;23;1321;-86
2021/12/28 01:07:18;;;;;;;8.75;3.38;;;;;;;7.07;100.00;98882.97;829700;23;4220;-86
2021/12/28 01:07:39;;;;;;;6.93;3.20;;;;;;;7.09;100.00;98876.00;827805;23;749;-86
2021/12/28 01:08:02;;;;;;;6.38;3.25;;;;;;;7.13;100.00;98859.47;826409;23;1431;-85
2021/12/28 01:08:25;;;;;;;8.40;3.20;;;;;;;7.12;100.00;98902.78;822228;24;1179;-86
2021/12/28 01:08:46;;;;;;;7.20;3.25;;;;;;;7.13;100.00;98854.25;830282;23;1488;-85
2021/12/28 01:09:06;;;;;;;8.13;3.30;;;;;;;7.15;100.00;98855.09;831380;23;1223;-85
2021/12/28 01:09:30;;;;;;;7.13;3.13;;;;;;;7.14;100.00;98875.06;835021;23;1169;-86
2021/12/28 01:09:51;;;;;;;7.38;3.00;;;;;;;7.24;100.00;98851.47;834656;23;1327;-86
2021/12/28 01:10:15;;;;;;;7.45;3.28;;;;;;;7.25;100.00;98867.03;828898;23;4240;-86
2021/12/28 01:10:42;;;;;;;9.00;3.20;;;;;;;7.22;100.00;98850.66;826663;23;1206;-86
2021/12/28 01:11:06;;;;;;;9.52;3.25;;;;;;;7.12;100.00;98850.81;831635;23;861;-86
2021/12/28 01:11:29;;;;;;;9.05;3.17;;;;;;;7.13;100.00;98878.53;831251;23;1153;-86
2021/12/28 01:11:49;;;;;;;9.10;3.10;;;;;;;7.14;100.00;98875.06;833159;23;999;-86
2021/12/28 01:12:10;;;;;;;6.28;3.03;;;;;;;7.12;100.00;98861.22;835584;23;1256;-86
2021/12/28 01:12:31;;;;;;;7.07;3.00;;;;;;;7.14;100.00;98851.66;835057;23;1283;-86
2021/12/28 01:12:52;;;;;;;7.43;2.90;;;;;;;7.10;100.00;98872.53;835300;23;1466;-86
2021/12/28 01:13:13;;;;;;;7.57;2.88;;;;;;;7.06;100.00;98887.34;825258;23;4254;-86
2021/12/28 01:13:34;;;;;;;9.60;3.20;;;;;;;7.04;100.00;98881.28;830333;23;1258;-86
2021/12/28 01:13:55;;;;;;;7.93;3.13;;;;;;;7.04;100.00;98890.84;819849;24;1330;-85
2021/12/28 01:14:19;;;;;;;7.40;3.10;;;;;;;7.12;100.00;98856.03;827360;23;1241;-86
2021/12/28 01:14:39;;;;;;;8.10;3.20;;;;;;;7.19;100.00;98855.91;828541;23;951;-86
2021/12/28 01:15:00;;;;;;;8.43;3.03;;;;;;;7.12;100.00;98878.56;828413;23;1091;-86
2021/12/28 01:15:26;;;;;;;10.40;3.22;;;;;;;7.08;100.00;98849.16;822964;24;1324;-87
2021/12/28 01:15:49;;;;;;;8.95;2.97;;;;;;;7.01;100.00;98876.16;825788;23;1222;-86
2021/12/28 01:16:14;;;;;;;9.25;3.13;;;;;;;6.94;100.00;98866.78;826547;23;4293;-85
2021/12/28 01:16:34;;;;;;;8.82;3.08;;;;;;;6.90;100.00;98865.13;831064;23;1340;-86
2021/12/28 01:16:55;;;;;;;8.57;3.07;;;;;;;6.88;100.00;98859.97;830425;23;1124;-86
2021/12/28 01:17:16;;;;;;;8.70;3.00;;;;;;;6.85;100.00;98852.19;828448;23;1304;-86
2021/12/28 01:17:37;;;;;;;6.43;3.20;;;;;;;6.84;100.00;98852.22;827011;23;1913;-86
2021/12/28 01:17:57;;;;;;;6.78;3.10;;;;;;;6.81;100.00;98854.00;827378;23;1178;-85
2021/12/28 01:18:19;;;;;;;7.20;3.03;;;;;;;6.77;100.00;98851.47;827344;23;1189;-88
2021/12/28 01:18:43;;;;;;;6.38;3.13;;;;;;;6.74;100.00;98856.75;832367;23;816;-87
2021/12/28 01:19:05;;;;;;;7.53;3.08;;;;;;;6.70;100.00;98881.94;834692;23;1336;-88
2021/12/28 01:19:26;;;;;;;10.60;3.10;;;;;;;6.84;100.00;98889.47;822205;23;4268;-87
2021/12/28 01:19:47;;;;;;;9.43;3.00;;;;;;;6.95;100.00;98884.94;831282;23;1432;-86
2021/12/28 01:20:10;;;;;;;8.30;3.15;;;;;;;7.13;100.00;98849.94;830418;23;1345;-87
2021/12/28 01:20:36;;;;;;;8.20;3.10;;;;;;;7.15;100.00;98842.13;831125;23;1231;-87
2021/12/28 01:20:57;;;;;;;9.95;3.08;;;;;;;7.31;100.00;98840.03;834904;23;1284;-88
2021/12/28 01:21:19;;;;;;;9.10;3.50;;;;;;;7.27;100.00;98867.84;830959;23;1212;-88
2021/12/28 01:21:39;;;;;;;8.05;2.90;;;;;;;7.22;100.00;98868.84;829900;23;1183;-87
2021/12/28 01:22:03;;;;;;;7.77;3.00;;;;;;;7.14;100.00;98874.19;831120;23;1218;-87
2021/12/28 01:22:26;;;;;;;8.90;3.00;;;;;;;7.39;100.00;98863.28;814411;23;4278;-88
2021/12/28 01:22:47;;;;;;;9.18;3.38;;;;;;;7.36;100.00;98860.75;823043;23;1275;-88
2021/12/28 01:23:11;;;;;;;8.00;3.05;;;;;;;7.30;100.00;98849.59;827777;23;1305;-87
2021/12/28 01:23:35;;;;;;;8.45;3.03;;;;;;;7.24;100.00;98854.06;818924;24;1227;-88
2021/12/28 01:24:05;;;;;;;8.90;3.10;;;;;;;7.30;100.00;98853.94;826498;23;1491;-87
2021/12/28 01:24:26;;;;;;;7.00;3.30;;;;;;;7.35;100.00;98846.88;832217;23;900;-85
2021/12/28 01:24:46;;;;;;;6.25;3.00;;;;;;;7.30;100.00;98843.56;823781;23;1192;-85
2021/12/28 01:25:21;;;;;;;8.53;3.03;;;;;;;7.24;100.00;98869.66;819140;24;4509;-84
2021/12/28 01:25:44;;;;;;;8.30;3.20;;;;;;;7.13;100.00;98868.13;827308;23;1298;-87
2021/12/28 01:26:05;;;;;;;7.55;2.95;;;;;;;7.07;100.00;98868.25;828854;23;729;-87
2021/12/28 01:26:25;;;;;;;7.53;2.97;;;;;;;7.07;100.00;98896.81;832001;23;881;-86
2021/12/28 01:26:47;;;;;;;8.97;3.20;;;;;;;7.03;100.00;98845.78;829794;23;1300;-85
2021/12/28 01:27:08;;;;;;;10.32;3.47;;;;;;;6.99;100.00;98844.16;834532;23;1270;-85
2021/12/28 01:27:28;;;;;;;8.15;3.30;;;;;;;7.01;100.00;98864.94;829133;23;1397;-85
2021/12/28 01:27:49;;;;;;;7.60;3.03;;;;;;;6.99;100.00;98875.31;832658;23;1050;-85
2021/12/28 01:28:10;;;;;;;7.83;3.10;;;;;;;6.96;100.00;98867.59;827818;23;4453;-84
2021/12/28 01:28:31;;;;;;;7.32;2.90;;;;;;;7.03;100.00;98855.34;830591;23;1388;-87
2021/12/28 01:28:51;;;;;;;7.80;3.20;;;;;;;7.01;100.00;98888.31;830675;23;1297;-85
2021/12/28 01:29:12;;;;;;;8.75;3.20;;;;;;;6.98;100.00;98878.81;827542;23;820;-85
2021/12/28 01:29:33;;;;;;;8.02;3.08;;;;;;;6.95;100.00;98876.25;824565;23;980;-85
2021/12/28 01:29:56;;;;;;;9.27;3.25;;;;;;;6.95;100.00;98865.88;835318;23;1293;-85
2021/12/28 01:30:20;;;;;;;11.25;3.13;;;;;;;6.93;100.00;98855.50;837104;23;964;-85
2021/12/28 01:30:41;;;;;;;11.48;3.10;;;;;;;7.12;100.00;98887.19;834382;23;1545;-85
2021/12/28 01:31:02;;;;;;;11.02;3.47;;;;;;;7.09;100.00;98874.28;835383;23;785;-85
2021/12/28 01:31:23;;;;;;;8.70;3.30;;;;;;;7.15;100.00;98850.75;831979;23;4293;-85
2021/12/28 01:31:46;;;;;;;8.40;3.00;;;;;;;7.17;100.00;98853.31;824547;23;1188;-86
2021/12/28 01:32:08;;;;;;;10.65;3.22;;;;;;;7.12;100.00;98858.63;827786;23;1321;-85
2021/12/28 01:32:33;;;;;;;9.13;3.17;;;;;;;7.25;100.00;98847.97;822663;23;1356;-85
2021/12/28 01:32:57;;;;;;;8.40;2.95;;;;;;;7.21;100.00;98865.38;828957;23;816;-86
2021/12/28 01:33:17;;;;;;;8.13;3.25;;;;;;;7.13;100.00;98856.88;831085;23;1306;-85
2021/12/28 01:33:38;;;;;;;8.48;3.13;;;;;;;7.09;100.00;98870.81;825698;23;1098;-86
2021/12/28 01:33:59;;;;;;;9.17;3.20;;;;;;;7.06;100.00;98857.88;823013;24;1208;-85
2021/12/28 01:34:20;;;;;;;8.80;3.08;;;;;;;7.00;100.00;98877.03;822723;24;4599;-86
2021/12/28 01:34:41;;;;;;;8.45;3.00;;;;;;;7.08;100.00;98853.53;827226;23;1322;-86
2021/12/28 01:35:07;;;;;;;8.10;3.20;;;;;;;7.07;100.00;98852.66;826528;23;1394;-86
2021/12/28 01:35:31;;;;;;;8.57;3.17;;;;;;;7.01;100.00;98851.94;827053;23;1425;-85
2021/12/28 01:35:53;;;;;;;10.40;3.00;;;;;;;7.06;100.00;98876.94;827702;23;1054;-86
2021/12/28 01:36:14;;;;;;;9.07;3.00;;;;;;;7.10;100.00;98901.97;823319;23;1309;-86
2021/12/28 01:36:37;;;;;;;9.75;3.33;;;;;;;7.23;100.00;98883.56;823744;24;1315;-85
2021/12/28 01:36:58;;;;;;;7.60;3.17;;;;;;;7.33;100.00;98892.88;823103;23;1265;-84
2021/12/28 01:37:21;;;;;;;10.20;3.08;;;;;;;7.30;100.00;98864.34;824130;23;4260;-85
2021/12/28 01:37:43;;;;;;;8.93;3.00;;;;;;;7.34;100.00;98855.59;831424;23;1913;-85
2021/12/28 01:38:04;;;;;;;9.98;2.90;;;;;;;7.35;100.00;98859.88;830428;23;1269;-85
2021/12/28 01:38:26;;;;;;;9.27;2.75;;;;;;;7.26;100.00;98845.34;826897;23;1190;-86
2021/12/28 01:38:47;;;;;;;8.85;2.90;;;;;;;7.25;100.00;98845.38;826836;23;1271;-85
2021/12/28 01:39:09;;;;;;;8.40;3.17;;;;;;;7.21;100.00;98869.72;826220;23;1179;-86
2021/12/28 01:39:29;;;;;;;11.25;3.45;;;;;;;7.18;100.00;98854.19;832092;23;900;-85
2021/12/28 01:39:49;;;;;;;11.57;3.23;;;;;;;7.12;100.00;98848.22;826141;23;1271;-85
2021/12/28 01:40:18;;;;;;;9.57;3.40;;;;;;;7.11;100.00;98848.25;820796;23;4287;-85
2021/12/28 01:40:41;;;;;;;11.93;3.28;;;;;;;7.06;100.00;98866.53;826293;23;1264;-86
2021/12/28 01:41:02;;;;;;;10.57;3.22;;;;;;;7.03;100.00;98845.78;827092;23;1218;-85
2021/12/28 01:41:22;;;;;;;9.50;3.60;;;;;;;7.03;100.00;98851.00;831811;23;709;-86
2021/12/28 01:41:43;;;;;;;9.93;3.00;;;;;;;7.01;100.00;98845.00;835873;23;892;-86
2021/12/28 01:42:06;;;;;;;9.07;3.03;;;;;;;7.07;100.00;98852.66;831537;23;1240;-86
2021/12/28 01:42:28;;;;;;;9.63;3.20;;;;;;;7.17;100.00;98858.50;826248;23;1267;-85
2021/12/28 01:43:13;;;;;;;9.25;3.50;;;;;;;7.10;100.00;98857.81;828093;23;971;-85
2021/12/28 01:43:33;;;;;;;10.88;3.38;;;;;;;7.07;100.00;98852.66;828050;23;4775;-85
2021/12/28 01:43:56;;;;;;;10.15;3.10;;;;;;;7.01;100.00;98847.59;824987;23;1314;-86
2021/12/28 01:44:17;;;;;;;9.60;3.00;;;;;;;7.01;100.00;98845.00;827533;23;833;-85
2021/12/28 01:44:37;;;;;;;11.17;3.40;;;;;;;7.03;100.00;98856.19;830398;23;1066;-85
2021/12/28 01:44:58;;;;;;;9.07;3.25;;;;;;;7.10;100.00;98843.94;832441;23;745;-85
2021/12/28 01:46:05;;;;;;;9.67;3.00;;;;;;;7.03;100.00;98882.16;835723;23;1248;-86
2021/12/28 01:46:41;;;;;;;8.77;3.30;;;;;;;6.98;100.00;98853.69;814782;23;4984;-86
2021/12/28 01:47:04;;;;;;;9.65;3.15;;;;;;;7.02;100.00;98857.09;831483;23;1354;-85
2021/12/28 01:47:25;;;;;;;9.98;3.30;;;;;;;7.01;100.00;98867.53;831348;23;1106;-85
2021/12/28 01:47:45;;;;;;;7.75;3.13;;;;;;;7.05;100.00;98892.53;835016;23;1427;-86
2021/12/28 01:48:08;;;;;;;9.55;3.20;;;;;;;7.09;100.00;98853.50;834717;23;1316;-86
2021/12/28 01:48:32;;;;;;;11.60;3.47;;;;;;;7.11;100.00;98837.88;831127;23;1403;-85
2021/12/28 01:48:53;;;;;;;10.23;2.90;;;;;;;7.36;100.00;98879.81;830880;23;1370;-85
2021/12/28 01:49:13;;;;;;;10.10;2.90;;;;;;;7.43;100.00;98839.78;828661;23;4264;-86
2021/12/28 01:49:34;;;;;;;10.13;3.10;;;;;;;7.43;100.00;98834.59;830686;23;1274;-85
2021/12/28 01:49:54;;;;;;;8.77;2.97;;;;;;;7.47;100.00;98840.59;831038;23;1431;-85
2021/12/28 01:50:15;;;;;;;11.63;3.33;;;;;;;7.58;100.00;98837.75;825582;23;1130;-86
2021/12/28 01:50:36;;;;;;;12.03;3.20;;;;;;;7.58;100.00;98858.56;822451;23;1286;-85
2021/12/28 01:51:05;;;;;;;9.88;3.08;;;;;;;7.54;100.00;98862.13;834872;23;1264;-85
2021/12/28 01:51:29;;;;;;;10.30;3.05;;;;;;;7.47;100.00;98832.78;831224;23;1212;-84
2021/12/28 01:51:55;;;;;;;9.88;3.22;;;;;;;7.41;100.00;98841.56;823713;23;1165;-84
2021/12/28 01:52:16;;;;;;;7.82;3.00;;;;;;;7.32;100.00;98850.44;821418;23;4257;-85
2021/12/28 01:52:37;;;;;;;8.98;3.28;;;;;;;7.43;100.00;98845.00;826553;23;1292;-86